Terminal Aerodrome Forecast
Issued by NWS

Home | Current Version | Previous Version | Text Only | Print | Product List | Glossary On
Versions: 1 2 3 4 5 6 7 8 9 10 11 12 13 14 15 16 17 18 19 20 21 22 23 24 25 26 27 28 29 30 31 32 33
000
FTUS45 KBOU 310550
TAFBJC
TAF
KBJC 310550Z 3106/0106 24005KT P6SM SCT120
     FM311400 28008KT P6SM SCT090 BKN150
     FM311900 07011KT P6SM SCT090 BKN150 PROB30 3120/3124 VRB18G30KT
      -TSRA BKN090CB
     FM010000 28012KT P6SM SCT150=

USA.gov is the U.S. government's official web portal to all federal, state and local government web resources and services.